QTR3X OTHH-HDAM
Flight info
| Callsign | QTR3X |
|---|---|
| Flight time | N/A |
| Altitude | 35000 |
| Route | DATRI L564 BAT DCT KUTNA DCT MIGMA DCT GOBRO L425 ITUVO B400 RIGAM B404 DEMGO UB404 HARGA UR775 LUBAR LUBAR1U |
| Aircraft | A320/M-SDE3FGHIRWY/LB1 |
Departure
| Time | 2026-05-05 12:01 |
|---|---|
| Airport | Hamad International Airport (OTHH) |
Arrival
| Time | N/A |
|---|---|
| Airport | Djibouti-Ambouli Airport (HDAM) |
| Time | Latitude | Longitude | Altitude | Speed | Heading |
|---|---|---|---|---|---|
| 2026-05-05 11:19 | 25.26370 | 51.60822 | 22 ft | 0 kts | 249° |
| 2026-05-05 11:52 | 25.26375 | 51.60836 | 24 ft | 4 kts | 249° |
| 2026-05-05 11:53 | 25.26381 | 51.60855 | 24 ft | 4 kts | 249° |
| 2026-05-05 11:53 | 25.26391 | 51.60883 | 26 ft | 4 kts | 249° |
| 2026-05-05 11:53 | 25.26399 | 51.60904 | 25 ft | 4 kts | 223° |
| 2026-05-05 11:53 | 25.26420 | 51.60909 | 22 ft | 4 kts | 158° |
| 2026-05-05 11:54 | 25.26443 | 51.60899 | 24 ft | 4 kts | 161° |
| 2026-05-05 11:54 | 25.26455 | 51.60894 | 24 ft | 0 kts | 158° |
| 2026-05-05 11:56 | 25.26440 | 51.60901 | 24 ft | 4 kts | 159° |
| 2026-05-05 11:56 | 25.26404 | 51.60916 | 25 ft | 7 kts | 159° |
| 2026-05-05 11:56 | 25.26351 | 51.60940 | 22 ft | 9 kts | 157° |
| 2026-05-05 11:57 | 25.26282 | 51.60937 | 22 ft | 12 kts | 218° |
| 2026-05-05 11:57 | 25.26244 | 51.60845 | 24 ft | 14 kts | 249° |
| 2026-05-05 11:57 | 25.26206 | 51.60743 | 22 ft | 15 kts | 247° |
| 2026-05-05 11:57 | 25.26166 | 51.60633 | 22 ft | 16 kts | 242° |
| 2026-05-05 11:58 | 25.26068 | 51.60629 | 21 ft | 16 kts | 159° |
| 2026-05-05 11:58 | 25.25960 | 51.60677 | 21 ft | 18 kts | 159° |
| 2026-05-05 11:58 | 25.25841 | 51.60729 | 21 ft | 19 kts | 158° |
| 2026-05-05 11:58 | 25.25716 | 51.60784 | 21 ft | 18 kts | 158° |
| 2026-05-05 11:59 | 25.25636 | 51.60790 | 21 ft | 8 kts | 219° |
| 2026-05-05 11:59 | 25.25611 | 51.60725 | 23 ft | 10 kts | 250° |
| 2026-05-05 11:59 | 25.25581 | 51.60641 | 19 ft | 14 kts | 249° |
| 2026-05-05 11:59 | 25.25575 | 51.60536 | 17 ft | 13 kts | 318° |
| 2026-05-05 12:00 | 25.25592 | 51.60528 | 15 ft | 1 kts | 339° |
| 2026-05-05 12:00 | 25.25605 | 51.60522 | 15 ft | 4 kts | 339° |
| 2026-05-05 12:00 | 25.25713 | 51.60477 | 16 ft | 38 kts | 338° |
| 2026-05-05 12:00 | 25.26162 | 51.60279 | 19 ft | 99 kts | 338° |
| 2026-05-05 12:01 | 25.26958 | 51.59927 | 15 ft | 145 kts | 338° |
| 2026-05-05 12:01 | 25.28018 | 51.59456 | 18 ft | 182 kts | 339° |
| 2026-05-05 12:01 | 25.29247 | 51.58913 | 399 ft | 193 kts | 340° |
| 2026-05-05 12:01 | 25.30489 | 51.58371 | 1094 ft | 189 kts | 340° |
| 2026-05-05 12:02 | 25.31717 | 51.57835 | 1745 ft | 188 kts | 339° |
| 2026-05-05 12:02 | 25.32913 | 51.57302 | 2271 ft | 187 kts | 339° |
| 2026-05-05 12:02 | 25.34172 | 51.56741 | 2407 ft | 203 kts | 338° |
| 2026-05-05 12:02 | 25.35535 | 51.56134 | 2550 ft | 220 kts | 338° |
| 2026-05-05 12:03 | 25.37004 | 51.55479 | 2683 ft | 237 kts | 339° |
| 2026-05-05 12:03 | 25.38569 | 51.54785 | 3064 ft | 245 kts | 339° |
| 2026-05-05 12:03 | 25.40156 | 51.54079 | 3545 ft | 249 kts | 339° |
| 2026-05-05 12:03 | 25.41826 | 51.53337 | 3817 ft | 266 kts | 338° |
| 2026-05-05 12:04 | 25.43569 | 51.52562 | 3961 ft | 272 kts | 339° |
| 2026-05-05 12:04 | 25.45327 | 51.51782 | 3973 ft | 272 kts | 338° |
| 2026-05-05 12:04 | 25.47019 | 51.50867 | 3973 ft | 272 kts | 322° |
| 2026-05-05 12:04 | 25.48153 | 51.49221 | 3996 ft | 275 kts | 290° |
| 2026-05-05 12:05 | 25.48367 | 51.47108 | 4559 ft | 280 kts | 268° |
| 2026-05-05 12:05 | 25.48288 | 51.44949 | 5222 ft | 281 kts | 268° |
| 2026-05-05 12:05 | 25.48198 | 51.42780 | 5858 ft | 283 kts | 268° |
| 2026-05-05 12:05 | 25.48102 | 51.40593 | 6534 ft | 287 kts | 268° |
| 2026-05-05 12:06 | 25.48001 | 51.38334 | 6875 ft | 291 kts | 268° |
| 2026-05-05 12:06 | 25.47903 | 51.36128 | 6955 ft | 286 kts | 268° |
| 2026-05-05 12:06 | 25.47807 | 51.33924 | 7189 ft | 287 kts | 268° |
| 2026-05-05 12:06 | 25.47708 | 51.31730 | 7898 ft | 285 kts | 268° |
| 2026-05-05 12:07 | 25.47601 | 51.29532 | 8563 ft | 286 kts | 265° |
| 2026-05-05 12:07 | 25.47029 | 51.27430 | 9186 ft | 291 kts | 239° |
| 2026-05-05 12:07 | 25.45586 | 51.25856 | 9791 ft | 298 kts | 210° |
| 2026-05-05 12:07 | 25.43580 | 51.25242 | 10277 ft | 309 kts | 185° |
| 2026-05-05 12:08 | 25.41356 | 51.25194 | 10393 ft | 330 kts | 181° |
| 2026-05-05 12:08 | 25.38992 | 51.25229 | 10513 ft | 349 kts | 180° |
| 2026-05-05 12:08 | 25.36519 | 51.25299 | 10756 ft | 361 kts | 180° |
| 2026-05-05 12:08 | 25.33989 | 51.25373 | 11209 ft | 366 kts | 180° |
| 2026-05-05 12:09 | 25.31435 | 51.25434 | 11707 ft | 369 kts | 181° |
| 2026-05-05 12:09 | 25.28864 | 51.25492 | 11933 ft | 371 kts | 179° |
| 2026-05-05 12:09 | 25.26335 | 51.25892 | 11979 ft | 373 kts | 167° |
| 2026-05-05 12:09 | 25.23877 | 51.26813 | 11980 ft | 374 kts | 160° |
| 2026-05-05 12:10 | 25.21442 | 51.27846 | 11980 ft | 374 kts | 160° |
| 2026-05-05 12:10 | 25.18998 | 51.28882 | 12334 ft | 378 kts | 160° |
| 2026-05-05 12:10 | 25.16538 | 51.29923 | 12870 ft | 380 kts | 160° |
| 2026-05-05 12:10 | 25.14060 | 51.30968 | 13387 ft | 383 kts | 160° |
| 2026-05-05 12:11 | 25.11558 | 51.32022 | 13870 ft | 386 kts | 160° |
| 2026-05-05 12:11 | 25.09044 | 51.33078 | 14346 ft | 388 kts | 160° |
| 2026-05-05 12:11 | 25.06513 | 51.34142 | 14839 ft | 390 kts | 160° |
| 2026-05-05 12:11 | 25.03976 | 51.35210 | 15313 ft | 392 kts | 160° |
| 2026-05-05 12:12 | 25.01425 | 51.36283 | 15795 ft | 393 kts | 160° |
| 2026-05-05 12:12 | 24.98866 | 51.37358 | 16279 ft | 395 kts | 161° |
| 2026-05-05 12:12 | 24.96293 | 51.38439 | 16762 ft | 396 kts | 161° |
| 2026-05-05 12:12 | 24.93721 | 51.39560 | 17233 ft | 399 kts | 156° |
| 2026-05-05 12:13 | 24.91306 | 51.41090 | 17692 ft | 403 kts | 146° |
| 2026-05-05 12:13 | 24.89026 | 51.42886 | 18144 ft | 405 kts | 146° |
| 2026-05-05 12:13 | 24.86729 | 51.44687 | 18550 ft | 407 kts | 146° |
| 2026-05-05 12:13 | 24.84417 | 51.46491 | 18943 ft | 409 kts | 146° |
| 2026-05-05 12:14 | 24.82084 | 51.48305 | 19335 ft | 411 kts | 146° |
| 2026-05-05 12:14 | 24.79741 | 51.50128 | 19723 ft | 414 kts | 146° |
| 2026-05-05 12:14 | 24.77384 | 51.51960 | 20113 ft | 416 kts | 146° |
| 2026-05-05 12:14 | 24.74957 | 51.53715 | 20494 ft | 418 kts | 153° |
| 2026-05-05 12:15 | 24.72295 | 51.54971 | 20876 ft | 417 kts | 165° |
| 2026-05-05 12:15 | 24.69497 | 51.55635 | 21224 ft | 417 kts | 176° |
| 2026-05-05 12:15 | 24.66563 | 51.55680 | 21580 ft | 417 kts | 187° |
| 2026-05-05 12:15 | 24.63710 | 51.55125 | 21923 ft | 417 kts | 194° |
| 2026-05-05 12:16 | 24.60901 | 51.54444 | 22277 ft | 420 kts | 194° |
| 2026-05-05 12:16 | 24.58040 | 51.53763 | 22632 ft | 422 kts | 194° |
| 2026-05-05 12:16 | 24.55166 | 51.53087 | 22991 ft | 424 kts | 194° |
| 2026-05-05 12:16 | 24.52272 | 51.52410 | 23324 ft | 426 kts | 194° |
| 2026-05-05 12:17 | 24.49358 | 51.51730 | 23618 ft | 428 kts | 194° |
| 2026-05-05 12:17 | 24.46441 | 51.51048 | 23919 ft | 430 kts | 194° |
| 2026-05-05 12:17 | 24.43516 | 51.50361 | 24220 ft | 431 kts | 194° |
| 2026-05-05 12:17 | 24.40581 | 51.49669 | 24523 ft | 432 kts | 194° |
| 2026-05-05 12:18 | 24.37635 | 51.48970 | 24818 ft | 433 kts | 195° |
| 2026-05-05 12:18 | 24.34680 | 51.48269 | 25107 ft | 435 kts | 195° |
| 2026-05-05 12:18 | 24.31724 | 51.47571 | 25397 ft | 436 kts | 195° |
| 2026-05-05 12:18 | 24.28753 | 51.46871 | 25691 ft | 437 kts | 195° |
| 2026-05-05 12:19 | 24.25775 | 51.46171 | 25977 ft | 438 kts | 195° |
| 2026-05-05 12:19 | 24.22782 | 51.45490 | 26263 ft | 441 kts | 192° |
| 2026-05-05 12:19 | 24.19713 | 51.45203 | 26530 ft | 446 kts | 183° |
| 2026-05-05 12:19 | 24.16603 | 51.45231 | 26801 ft | 448 kts | 183° |
| 2026-05-05 12:20 | 24.13483 | 51.45255 | 27066 ft | 449 kts | 183° |
| 2026-05-05 12:20 | 24.10355 | 51.45273 | 27342 ft | 450 kts | 183° |
| 2026-05-05 12:20 | 24.07221 | 51.45291 | 27703 ft | 450 kts | 183° |
| 2026-05-05 12:20 | 24.04106 | 51.45308 | 28108 ft | 448 kts | 183° |
| 2026-05-05 12:21 | 24.00989 | 51.45326 | 28517 ft | 446 kts | 184° |
| 2026-05-05 12:21 | 23.97889 | 51.45348 | 28926 ft | 445 kts | 184° |
| 2026-05-05 12:21 | 23.94797 | 51.45371 | 29326 ft | 444 kts | 184° |
| 2026-05-05 12:21 | 23.91710 | 51.45394 | 29737 ft | 443 kts | 184° |
| 2026-05-05 12:22 | 23.88635 | 51.45417 | 30088 ft | 441 kts | 184° |
| 2026-05-05 12:22 | 23.85610 | 51.45438 | 30410 ft | 441 kts | 184° |
| 2026-05-05 12:22 | 23.82503 | 51.45458 | 30744 ft | 440 kts | 184° |
| 2026-05-05 12:22 | 23.79486 | 51.45476 | 31065 ft | 439 kts | 184° |
| 2026-05-05 12:23 | 23.76434 | 51.45495 | 31389 ft | 438 kts | 184° |
| 2026-05-05 12:23 | 23.73387 | 51.45513 | 31718 ft | 438 kts | 184° |
| 2026-05-05 12:23 | 23.70350 | 51.45530 | 32050 ft | 437 kts | 184° |
| 2026-05-05 12:23 | 23.67307 | 51.45547 | 32384 ft | 437 kts | 184° |
| 2026-05-05 12:24 | 23.64276 | 51.45566 | 32714 ft | 436 kts | 184° |
| 2026-05-05 12:24 | 23.61244 | 51.45586 | 33041 ft | 435 kts | 184° |
| 2026-05-05 12:24 | 23.58212 | 51.45604 | 33352 ft | 435 kts | 184° |
| 2026-05-05 12:24 | 23.55193 | 51.45622 | 33654 ft | 434 kts | 184° |
| 2026-05-05 12:25 | 23.52179 | 51.45642 | 33915 ft | 434 kts | 184° |
| 2026-05-05 12:25 | 23.49157 | 51.45663 | 34171 ft | 433 kts | 184° |
| 2026-05-05 12:25 | 23.46152 | 51.45682 | 34443 ft | 432 kts | 184° |
| 2026-05-05 12:25 | 23.43148 | 51.45701 | 34659 ft | 432 kts | 184° |
| 2026-05-05 12:26 | 23.37151 | 51.45735 | 34733 ft | 431 kts | 184° |
| 2026-05-05 12:26 | 23.34150 | 51.45755 | 34890 ft | 431 kts | 184° |
| 2026-05-05 12:26 | 23.31160 | 51.45775 | 35154 ft | 430 kts | 184° |
| 2026-05-05 12:27 | 23.28172 | 51.45796 | 35407 ft | 429 kts | 184° |
| 2026-05-05 12:27 | 23.25194 | 51.45818 | 35628 ft | 428 kts | 184° |
| 2026-05-05 12:27 | 23.19203 | 51.45870 | 35735 ft | 434 kts | 184° |
| 2026-05-05 12:28 | 23.13091 | 51.45954 | 35726 ft | 443 kts | 183° |
| 2026-05-05 12:28 | 23.06915 | 51.46051 | 35727 ft | 444 kts | 183° |
| 2026-05-05 12:29 | 23.00726 | 51.46136 | 35732 ft | 445 kts | 183° |
| 2026-05-05 12:29 | 22.94575 | 51.46215 | 35720 ft | 445 kts | 183° |
| 2026-05-05 12:30 | 22.88380 | 51.46350 | 35722 ft | 447 kts | 178° |
| 2026-05-05 12:30 | 22.82328 | 51.48114 | 35722 ft | 458 kts | 158° |
| 2026-05-05 12:31 | 22.76875 | 51.51854 | 35713 ft | 463 kts | 149° |
| 2026-05-05 12:31 | 22.71587 | 51.55770 | 35715 ft | 464 kts | 149° |
| 2026-05-05 12:32 | 22.66249 | 51.59700 | 35721 ft | 464 kts | 149° |
| 2026-05-05 12:32 | 22.60902 | 51.63634 | 35722 ft | 465 kts | 149° |
| 2026-05-05 12:33 | 22.55561 | 51.67573 | 35729 ft | 465 kts | 149° |
| 2026-05-05 12:33 | 22.50217 | 51.71514 | 35728 ft | 465 kts | 149° |
| 2026-05-05 12:34 | 22.44865 | 51.75456 | 35733 ft | 465 kts | 149° |
| 2026-05-05 12:34 | 22.39509 | 51.79388 | 35731 ft | 465 kts | 149° |
| 2026-05-05 12:35 | 22.34157 | 51.83317 | 35731 ft | 465 kts | 149° |
| 2026-05-05 12:35 | 22.28798 | 51.87241 | 35734 ft | 465 kts | 149° |
| 2026-05-05 12:36 | 22.23445 | 51.91173 | 35729 ft | 465 kts | 149° |
| 2026-05-05 12:36 | 22.18128 | 51.95071 | 35731 ft | 465 kts | 149° |
| 2026-05-05 12:37 | 22.12772 | 51.98980 | 35729 ft | 465 kts | 149° |
| 2026-05-05 12:37 | 22.07417 | 52.02883 | 35724 ft | 465 kts | 149° |
| 2026-05-05 12:38 | 22.02066 | 52.06787 | 35722 ft | 465 kts | 149° |
| 2026-05-05 12:38 | 21.96712 | 52.10697 | 35721 ft | 465 kts | 149° |
| 2026-05-05 12:39 | 21.91355 | 52.14610 | 35723 ft | 465 kts | 149° |
| 2026-05-05 12:39 | 21.85990 | 52.18516 | 35723 ft | 466 kts | 149° |
| 2026-05-05 12:40 | 21.80619 | 52.22413 | 35722 ft | 466 kts | 149° |
| 2026-05-05 12:40 | 21.75237 | 52.26318 | 35726 ft | 466 kts | 149° |
| 2026-05-05 12:41 | 21.69857 | 52.30217 | 35722 ft | 466 kts | 149° |
| 2026-05-05 12:41 | 21.64476 | 52.34126 | 35722 ft | 467 kts | 149° |
| 2026-05-05 12:42 | 21.59099 | 52.38023 | 35713 ft | 467 kts | 149° |
| 2026-05-05 12:42 | 21.54622 | 52.41269 | 35718 ft | 467 kts | 149° |
| 2026-05-05 12:43 | 21.49236 | 52.45169 | 35718 ft | 467 kts | 149° |
| 2026-05-05 12:43 | 21.43847 | 52.49059 | 35717 ft | 467 kts | 149° |
| 2026-05-05 12:44 | 21.38452 | 52.52955 | 35717 ft | 467 kts | 149° |
| 2026-05-05 12:44 | 21.33064 | 52.56847 | 35716 ft | 467 kts | 149° |
| 2026-05-05 12:45 | 21.27672 | 52.60726 | 35715 ft | 467 kts | 149° |
| 2026-05-05 12:45 | 21.22270 | 52.64614 | 35716 ft | 467 kts | 149° |
| 2026-05-05 12:46 | 21.16874 | 52.68495 | 35716 ft | 467 kts | 149° |
| 2026-05-05 12:46 | 21.11480 | 52.72372 | 35717 ft | 467 kts | 149° |
| 2026-05-05 12:47 | 21.06082 | 52.76255 | 35718 ft | 467 kts | 149° |
| 2026-05-05 12:47 | 21.00685 | 52.80129 | 35720 ft | 467 kts | 149° |
| 2026-05-05 12:48 | 20.95280 | 52.83995 | 35722 ft | 467 kts | 149° |
| 2026-05-05 12:48 | 20.89910 | 52.87839 | 35721 ft | 467 kts | 148° |
| 2026-05-05 12:49 | 20.84502 | 52.91707 | 35723 ft | 467 kts | 148° |
| 2026-05-05 12:49 | 20.79099 | 52.95567 | 35721 ft | 467 kts | 148° |
| 2026-05-05 12:50 | 20.73704 | 52.99429 | 35722 ft | 467 kts | 148° |
| 2026-05-05 12:50 | 20.68309 | 53.03282 | 35723 ft | 467 kts | 148° |
| 2026-05-05 12:51 | 20.62908 | 53.07131 | 35726 ft | 467 kts | 148° |
| 2026-05-05 12:51 | 20.57508 | 53.10977 | 35719 ft | 467 kts | 148° |
| 2026-05-05 12:52 | 20.52109 | 53.14823 | 35720 ft | 466 kts | 148° |
| 2026-05-05 12:52 | 20.46709 | 53.18666 | 35718 ft | 466 kts | 148° |
| 2026-05-05 12:53 | 20.41311 | 53.22508 | 35717 ft | 466 kts | 148° |
| 2026-05-05 12:53 | 20.35910 | 53.26347 | 35719 ft | 467 kts | 148° |
| 2026-05-05 12:54 | 20.27798 | 53.32101 | 35721 ft | 467 kts | 148° |
| 2026-05-05 12:55 | 20.22385 | 53.35929 | 35722 ft | 467 kts | 148° |
| 2026-05-05 12:55 | 20.16966 | 53.39757 | 35720 ft | 467 kts | 148° |
| 2026-05-05 12:56 | 20.11559 | 53.43581 | 35721 ft | 467 kts | 148° |
| 2026-05-05 12:56 | 20.06143 | 53.47406 | 35721 ft | 467 kts | 148° |
| 2026-05-05 12:57 | 20.00733 | 53.51228 | 35718 ft | 467 kts | 148° |
| 2026-05-05 12:57 | 19.95323 | 53.55047 | 35716 ft | 467 kts | 148° |
| 2026-05-05 12:58 | 19.89950 | 53.58843 | 35715 ft | 467 kts | 148° |
| 2026-05-05 12:58 | 19.84534 | 53.62659 | 35715 ft | 467 kts | 148° |
| 2026-05-05 12:59 | 19.79120 | 53.66470 | 35720 ft | 467 kts | 148° |
| 2026-05-05 12:59 | 19.73704 | 53.70276 | 35718 ft | 467 kts | 148° |
| 2026-05-05 13:00 | 19.65593 | 53.76002 | 35716 ft | 467 kts | 144° |
| 2026-05-05 13:01 | 19.59523 | 53.83987 | 35712 ft | 470 kts | 114° |
| 2026-05-05 13:01 | 19.58438 | 53.87251 | 35708 ft | 470 kts | 107° |
| 2026-05-05 13:01 | 19.56597 | 53.93895 | 35698 ft | 470 kts | 107° |
| 2026-05-05 13:02 | 19.54733 | 54.00547 | 35703 ft | 471 kts | 107° |
| 2026-05-05 13:02 | 19.52855 | 54.07203 | 35711 ft | 471 kts | 107° |
| 2026-05-05 13:03 | 19.50977 | 54.13864 | 35719 ft | 472 kts | 107° |
| 2026-05-05 13:03 | 19.49096 | 54.20522 | 35724 ft | 472 kts | 107° |
| 2026-05-05 13:04 | 19.47208 | 54.27180 | 35725 ft | 472 kts | 107° |
| 2026-05-05 13:04 | 19.45323 | 54.33835 | 35729 ft | 471 kts | 107° |
| 2026-05-05 13:05 | 19.43436 | 54.40480 | 35727 ft | 471 kts | 107° |
| 2026-05-05 13:05 | 19.41554 | 54.47135 | 35734 ft | 471 kts | 107° |
| 2026-05-05 13:06 | 19.39658 | 54.53785 | 35734 ft | 471 kts | 107° |
| 2026-05-05 13:06 | 19.37777 | 54.60384 | 35729 ft | 471 kts | 107° |
| 2026-05-05 13:07 | 19.35886 | 54.67032 | 35733 ft | 471 kts | 107° |
| 2026-05-05 13:07 | 19.33991 | 54.73665 | 35731 ft | 471 kts | 107° |
| 2026-05-05 13:08 | 19.32088 | 54.80296 | 35731 ft | 471 kts | 107° |
| 2026-05-05 13:08 | 19.30189 | 54.86926 | 35734 ft | 470 kts | 107° |
| 2026-05-05 13:09 | 19.28289 | 54.93549 | 35736 ft | 470 kts | 107° |
| 2026-05-05 13:09 | 19.26384 | 55.00169 | 35739 ft | 470 kts | 107° |
| 2026-05-05 13:10 | 19.24479 | 55.06777 | 35737 ft | 469 kts | 107° |
| 2026-05-05 13:10 | 19.22573 | 55.13388 | 35734 ft | 469 kts | 107° |
| 2026-05-05 13:11 | 19.20686 | 55.19941 | 35736 ft | 469 kts | 107° |
| 2026-05-05 13:11 | 19.18774 | 55.26542 | 35735 ft | 469 kts | 107° |
| 2026-05-05 13:12 | 19.16862 | 55.33134 | 35735 ft | 469 kts | 107° |
| 2026-05-05 13:12 | 19.14948 | 55.39731 | 35740 ft | 469 kts | 107° |
| 2026-05-05 13:13 | 19.13035 | 55.46331 | 35740 ft | 469 kts | 107° |
| 2026-05-05 13:13 | 19.11119 | 55.52925 | 35742 ft | 469 kts | 107° |
| 2026-05-05 13:14 | 19.08935 | 55.59411 | 35737 ft | 468 kts | 120° |
| 2026-05-05 13:14 | 19.07003 | 55.62166 | 35735 ft | 467 kts | 136° |
| 2026-05-05 13:14 | 19.04473 | 55.64288 | 35729 ft | 464 kts | 151° |
| 2026-05-05 13:15 | 19.01527 | 55.65628 | 35723 ft | 461 kts | 167° |
| 2026-05-05 13:15 | 18.98367 | 55.66104 | 35714 ft | 459 kts | 182° |
| 2026-05-05 13:15 | 18.95220 | 55.65722 | 35710 ft | 456 kts | 197° |
| 2026-05-05 13:15 | 18.92272 | 55.64517 | 35705 ft | 453 kts | 210° |
| 2026-05-05 13:16 | 18.86782 | 55.61219 | 35702 ft | 455 kts | 211° |
| 2026-05-05 13:16 | 18.81261 | 55.57905 | 35703 ft | 457 kts | 211° |
| 2026-05-05 13:17 | 18.75723 | 55.54578 | 35711 ft | 458 kts | 211° |
| 2026-05-05 13:17 | 18.70175 | 55.51239 | 35717 ft | 459 kts | 211° |
| 2026-05-05 13:18 | 18.64661 | 55.47928 | 35727 ft | 460 kts | 211° |
| 2026-05-05 13:18 | 18.59091 | 55.44594 | 35729 ft | 460 kts | 211° |
| 2026-05-05 13:19 | 18.53529 | 55.41254 | 35731 ft | 460 kts | 211° |
| 2026-05-05 13:19 | 18.47965 | 55.37920 | 35732 ft | 460 kts | 211° |
| 2026-05-05 13:20 | 18.42393 | 55.34593 | 35742 ft | 460 kts | 211° |